sensor_id;sensor_type;location;lat;lon;timestamp;P1;durP1;ratioP1;P2;durP2;ratioP2
49029;SDS011;43337;52.070;4.508;2023-09-30T00:00:56;18.73;;;5.50;;
49029;SDS011;43337;52.070;4.508;2023-09-30T00:03:21;12.45;;;4.53;;
49029;SDS011;43337;52.070;4.508;2023-09-30T00:05:47;16.40;;;5.45;;
49029;SDS011;43337;52.070;4.508;2023-09-30T00:08:12;14.32;;;4.70;;
49029;SDS011;43337;52.070;4.508;2023-09-30T00:10:38;17.23;;;6.95;;
49029;SDS011;43337;52.070;4.508;2023-09-30T00:13:03;17.17;;;6.22;;
49029;SDS011;43337;52.070;4.508;2023-09-30T00:15:29;11.90;;;5.05;;
49029;SDS011;43337;52.070;4.508;2023-09-30T00:17:54;14.20;;;5.40;;
49029;SDS011;43337;52.070;4.508;2023-09-30T00:20:20;16.17;;;4.90;;
49029;SDS011;43337;52.070;4.508;2023-09-30T00:22:45;13.48;;;4.40;;
49029;SDS011;43337;52.070;4.508;2023-09-30T00:25:11;15.63;;;5.13;;
49029;SDS011;43337;52.070;4.508;2023-09-30T00:27:36;10.55;;;4.10;;
49029;SDS011;43337;52.070;4.508;2023-09-30T00:30:02;14.85;;;5.22;;
49029;SDS011;43337;52.070;4.508;2023-09-30T00:32:28;11.98;;;4.35;;
49029;SDS011;43337;52.070;4.508;2023-09-30T00:34:54;10.35;;;4.00;;
49029;SDS011;43337;52.070;4.508;2023-09-30T00:37:19;10.80;;;4.07;;
49029;SDS011;43337;52.070;4.508;2023-09-30T00:39:46;11.75;;;4.25;;
49029;SDS011;43337;52.070;4.508;2023-09-30T00:42:13;13.13;;;3.97;;
49029;SDS011;43337;52.070;4.508;2023-09-30T00:44:38;12.55;;;4.25;;
49029;SDS011;43337;52.070;4.508;2023-09-30T00:47:03;10.95;;;4.43;;
49029;SDS011;43337;52.070;4.508;2023-09-30T00:49:29;11.05;;;4.28;;
49029;SDS011;43337;52.070;4.508;2023-09-30T00:51:55;12.45;;;4.75;;
49029;SDS011;43337;52.070;4.508;2023-09-30T00:54:21;13.95;;;4.00;;
49029;SDS011;43337;52.070;4.508;2023-09-30T00:56:50;14.20;;;4.60;;
49029;SDS011;43337;52.070;4.508;2023-09-30T00:59:17;11.82;;;4.45;;
49029;SDS011;43337;52.070;4.508;2023-09-30T01:01:44;12.30;;;4.20;;
49029;SDS011;43337;52.070;4.508;2023-09-30T01:04:11;13.80;;;4.40;;
49029;SDS011;43337;52.070;4.508;2023-09-30T01:06:38;9.30;;;3.95;;
49029;SDS011;43337;52.070;4.508;2023-09-30T01:09:04;12.90;;;4.05;;
49029;SDS011;43337;52.070;4.508;2023-09-30T01:11:29;15.63;;;4.90;;
49029;SDS011;43337;52.070;4.508;2023-09-30T01:13:55;17.42;;;4.88;;
49029;SDS011;43337;52.070;4.508;2023-09-30T01:16:20;9.82;;;3.78;;
49029;SDS011;43337;52.070;4.508;2023-09-30T01:18:46;14.70;;;4.30;;
49029;SDS011;43337;52.070;4.508;2023-09-30T01:21:12;12.45;;;4.07;;
49029;SDS011;43337;52.070;4.508;2023-09-30T01:23:38;13.07;;;4.63;;
49029;SDS011;43337;52.070;4.508;2023-09-30T01:26:07;13.00;;;4.38;;
49029;SDS011;43337;52.070;4.508;2023-09-30T01:28:34;10.52;;;4.13;;
49029;SDS011;43337;52.070;4.508;2023-09-30T01:31:00;14.30;;;4.38;;
49029;SDS011;43337;52.070;4.508;2023-09-30T01:33:26;12.77;;;3.88;;
49029;SDS011;43337;52.070;4.508;2023-09-30T01:35:52;14.82;;;4.40;;
49029;SDS011;43337;52.070;4.508;2023-09-30T01:38:17;11.32;;;3.70;;
49029;SDS011;43337;52.070;4.508;2023-09-30T01:40:43;11.77;;;4.70;;
49029;SDS011;43337;52.070;4.508;2023-09-30T01:43:12;13.25;;;4.35;;
49029;SDS011;43337;52.070;4.508;2023-09-30T01:45:40;12.45;;;4.50;;
49029;SDS011;43337;52.070;4.508;2023-09-30T01:48:06;14.30;;;4.78;;
49029;SDS011;43337;52.070;4.508;2023-09-30T01:50:32;13.77;;;5.25;;
49029;SDS011;43337;52.070;4.508;2023-09-30T01:52:57;10.05;;;4.25;;
49029;SDS011;43337;52.070;4.508;2023-09-30T01:55:22;11.13;;;4.25;;
49029;SDS011;43337;52.070;4.508;2023-09-30T01:57:48;12.88;;;4.95;;
49029;SDS011;43337;52.070;4.508;2023-09-30T02:00:13;15.57;;;5.30;;
49029;SDS011;43337;52.070;4.508;2023-09-30T02:02:38;11.65;;;5.28;;
49029;SDS011;43337;52.070;4.508;2023-09-30T02:05:05;13.43;;;4.32;;
49029;SDS011;43337;52.070;4.508;2023-09-30T02:07:33;16.70;;;4.85;;
49029;SDS011;43337;52.070;4.508;2023-09-30T02:09:59;13.57;;;4.85;;
49029;SDS011;43337;52.070;4.508;2023-09-30T02:12:26;14.20;;;4.55;;
49029;SDS011;43337;52.070;4.508;2023-09-30T02:14:52;13.82;;;5.40;;
49029;SDS011;43337;52.070;4.508;2023-09-30T02:17:18;14.40;;;4.70;;
49029;SDS011;43337;52.070;4.508;2023-09-30T02:19:44;12.30;;;5.50;;
49029;SDS011;43337;52.070;4.508;2023-09-30T02:22:11;15.00;;;5.55;;
49029;SDS011;43337;52.070;4.508;2023-09-30T02:24:36;10.90;;;6.00;;
49029;SDS011;43337;52.070;4.508;2023-09-30T02:27:02;14.10;;;5.57;;
49029;SDS011;43337;52.070;4.508;2023-09-30T02:29:29;15.50;;;5.70;;
49029;SDS011;43337;52.070;4.508;2023-09-30T02:31:56;18.02;;;6.22;;
49029;SDS011;43337;52.070;4.508;2023-09-30T02:34:21;18.40;;;6.25;;
49029;SDS011;43337;52.070;4.508;2023-09-30T02:36:47;16.50;;;6.70;;
49029;SDS011;43337;52.070;4.508;2023-09-30T02:39:12;15.52;;;5.47;;
49029;SDS011;43337;52.070;4.508;2023-09-30T02:41:41;17.42;;;6.18;;
49029;SDS011;43337;52.070;4.508;2023-09-30T02:44:07;16.50;;;6.55;;
49029;SDS011;43337;52.070;4.508;2023-09-30T02:46:32;15.63;;;5.38;;
49029;SDS011;43337;52.070;4.508;2023-09-30T02:49:00;14.88;;;5.57;;
49029;SDS011;43337;52.070;4.508;2023-09-30T02:51:26;14.15;;;5.30;;
49029;SDS011;43337;52.070;4.508;2023-09-30T02:53:51;15.15;;;5.40;;
49029;SDS011;43337;52.070;4.508;2023-09-30T02:56:18;14.85;;;5.25;;
49029;SDS011;43337;52.070;4.508;2023-09-30T02:58:45;13.35;;;6.05;;
49029;SDS011;43337;52.070;4.508;2023-09-30T03:01:13;17.23;;;6.65;;
49029;SDS011;43337;52.070;4.508;2023-09-30T03:03:41;18.00;;;7.03;;
49029;SDS011;43337;52.070;4.508;2023-09-30T03:06:09;16.02;;;5.88;;
49029;SDS011;43337;52.070;4.508;2023-09-30T03:08:35;15.25;;;6.85;;
49029;SDS011;43337;52.070;4.508;2023-09-30T03:11:02;18.00;;;6.32;;
49029;SDS011;43337;52.070;4.508;2023-09-30T03:13:29;12.63;;;5.45;;
49029;SDS011;43337;52.070;4.508;2023-09-30T03:15:55;18.17;;;5.80;;
49029;SDS011;43337;52.070;4.508;2023-09-30T03:18:21;15.18;;;6.22;;
49029;SDS011;43337;52.070;4.508;2023-09-30T03:20:51;16.15;;;6.70;;
49029;SDS011;43337;52.070;4.508;2023-09-30T03:23:21;14.88;;;6.75;;
49029;SDS011;43337;52.070;4.508;2023-09-30T03:25:47;14.43;;;6.22;;
49029;SDS011;43337;52.070;4.508;2023-09-30T03:28:13;14.32;;;6.80;;
49029;SDS011;43337;52.070;4.508;2023-09-30T03:30:39;18.98;;;7.20;;
49029;SDS011;43337;52.070;4.508;2023-09-30T03:33:06;16.83;;;6.80;;
49029;SDS011;43337;52.070;4.508;2023-09-30T03:35:31;18.45;;;6.85;;
49029;SDS011;43337;52.070;4.508;2023-09-30T03:37:57;14.95;;;7.18;;
49029;SDS011;43337;52.070;4.508;2023-09-30T03:40:23;18.38;;;6.93;;
49029;SDS011;43337;52.070;4.508;2023-09-30T03:42:53;14.07;;;6.95;;
49029;SDS011;43337;52.070;4.508;2023-09-30T03:45:19;25.25;;;7.68;;
49029;SDS011;43337;52.070;4.508;2023-09-30T03:47:45;21.20;;;7.63;;
49029;SDS011;43337;52.070;4.508;2023-09-30T03:50:12;17.80;;;7.03;;
49029;SDS011;43337;52.070;4.508;2023-09-30T03:52:39;22.30;;;8.30;;
49029;SDS011;43337;52.070;4.508;2023-09-30T03:55:09;15.13;;;6.93;;
49029;SDS011;43337;52.070;4.508;2023-09-30T03:57:37;21.48;;;8.38;;
49029;SDS011;43337;52.070;4.508;2023-09-30T04:00:03;18.33;;;8.10;;
49029;SDS011;43337;52.070;4.508;2023-09-30T04:02:35;19.20;;;7.57;;
49029;SDS011;43337;52.070;4.508;2023-09-30T04:05:00;18.30;;;7.38;;
49029;SDS011;43337;52.070;4.508;2023-09-30T04:07:30;17.23;;;7.82;;
49029;SDS011;43337;52.070;4.508;2023-09-30T04:09:56;23.63;;;8.75;;
49029;SDS011;43337;52.070;4.508;2023-09-30T04:12:21;19.10;;;7.75;;
49029;SDS011;43337;52.070;4.508;2023-09-30T04:14:52;22.85;;;7.70;;
49029;SDS011;43337;52.070;4.508;2023-09-30T04:17:18;17.63;;;7.97;;
49029;SDS011;43337;52.070;4.508;2023-09-30T04:19:43;16.98;;;7.00;;
49029;SDS011;43337;52.070;4.508;2023-09-30T04:22:12;19.67;;;7.10;;
49029;SDS011;43337;52.070;4.508;2023-09-30T04:24:38;19.25;;;7.45;;
49029;SDS011;43337;52.070;4.508;2023-09-30T04:27:04;20.13;;;7.90;;
49029;SDS011;43337;52.070;4.508;2023-09-30T04:29:31;25.85;;;8.13;;
49029;SDS011;43337;52.070;4.508;2023-09-30T04:31:56;16.95;;;7.47;;
49029;SDS011;43337;52.070;4.508;2023-09-30T04:34:22;24.08;;;9.02;;
49029;SDS011;43337;52.070;4.508;2023-09-30T04:36:47;19.77;;;8.10;;
49029;SDS011;43337;52.070;4.508;2023-09-30T04:39:13;25.05;;;8.77;;
49029;SDS011;43337;52.070;4.508;2023-09-30T04:41:40;19.83;;;7.55;;
49029;SDS011;43337;52.070;4.508;2023-09-30T04:44:06;17.13;;;7.80;;
49029;SDS011;43337;52.070;4.508;2023-09-30T04:46:32;19.08;;;7.82;;
49029;SDS011;43337;52.070;4.508;2023-09-30T04:48:57;24.13;;;8.60;;
49029;SDS011;43337;52.070;4.508;2023-09-30T04:51:22;22.70;;;8.18;;
49029;SDS011;43337;52.070;4.508;2023-09-30T04:53:50;25.02;;;10.10;;
49029;SDS011;43337;52.070;4.508;2023-09-30T04:56:16;22.10;;;8.82;;
49029;SDS011;43337;52.070;4.508;2023-09-30T04:58:42;21.23;;;9.63;;
49029;SDS011;43337;52.070;4.508;2023-09-30T05:01:07;20.75;;;9.25;;
49029;SDS011;43337;52.070;4.508;2023-09-30T05:03:33;21.95;;;8.57;;
49029;SDS011;43337;52.070;4.508;2023-09-30T05:05:59;20.40;;;9.18;;
49029;SDS011;43337;52.070;4.508;2023-09-30T05:08:26;24.58;;;9.40;;
49029;SDS011;43337;52.070;4.508;2023-09-30T05:10:53;19.60;;;8.10;;
49029;SDS011;43337;52.070;4.508;2023-09-30T05:13:22;23.38;;;8.10;;
49029;SDS011;43337;52.070;4.508;2023-09-30T05:15:51;29.05;;;10.93;;
49029;SDS011;43337;52.070;4.508;2023-09-30T05:18:18;30.27;;;10.30;;
49029;SDS011;43337;52.070;4.508;2023-09-30T05:20:43;26.02;;;9.82;;
49029;SDS011;43337;52.070;4.508;2023-09-30T05:23:09;22.08;;;9.45;;
49029;SDS011;43337;52.070;4.508;2023-09-30T05:25:37;23.10;;;9.18;;
49029;SDS011;43337;52.070;4.508;2023-09-30T05:28:05;29.02;;;10.40;;
49029;SDS011;43337;52.070;4.508;2023-09-30T05:30:31;23.88;;;9.65;;
49029;SDS011;43337;52.070;4.508;2023-09-30T05:33:00;24.30;;;9.43;;
49029;SDS011;43337;52.070;4.508;2023-09-30T05:35:26;22.52;;;10.68;;
49029;SDS011;43337;52.070;4.508;2023-09-30T05:37:52;28.63;;;9.98;;
49029;SDS011;43337;52.070;4.508;2023-09-30T05:40:18;24.95;;;9.98;;
49029;SDS011;43337;52.070;4.508;2023-09-30T05:42:48;28.95;;;10.02;;
49029;SDS011;43337;52.070;4.508;2023-09-30T05:45:14;38.78;;;10.68;;
49029;SDS011;43337;52.070;4.508;2023-09-30T05:47:40;25.08;;;9.20;;
49029;SDS011;43337;52.070;4.508;2023-09-30T05:50:09;27.63;;;11.50;;
49029;SDS011;43337;52.070;4.508;2023-09-30T05:52:35;26.70;;;11.20;;
49029;SDS011;43337;52.070;4.508;2023-09-30T05:55:02;26.15;;;10.50;;
49029;SDS011;43337;52.070;4.508;2023-09-30T05:57:28;26.77;;;11.05;;
49029;SDS011;43337;52.070;4.508;2023-09-30T05:59:53;24.17;;;10.65;;
49029;SDS011;43337;52.070;4.508;2023-09-30T06:02:19;28.92;;;11.35;;
49029;SDS011;43337;52.070;4.508;2023-09-30T06:04:44;28.55;;;12.13;;
49029;SDS011;43337;52.070;4.508;2023-09-30T06:07:11;29.83;;;13.20;;
49029;SDS011;43337;52.070;4.508;2023-09-30T06:09:37;30.35;;;14.02;;
49029;SDS011;43337;52.070;4.508;2023-09-30T06:12:02;34.95;;;12.85;;
49029;SDS011;43337;52.070;4.508;2023-09-30T06:14:32;31.77;;;13.68;;
49029;SDS011;43337;52.070;4.508;2023-09-30T06:16:57;32.88;;;12.90;;
49029;SDS011;43337;52.070;4.508;2023-09-30T06:19:23;34.95;;;14.05;;
49029;SDS011;43337;52.070;4.508;2023-09-30T06:21:50;38.95;;;14.57;;
49029;SDS011;43337;52.070;4.508;2023-09-30T06:24:15;33.38;;;14.77;;
49029;SDS011;43337;52.070;4.508;2023-09-30T06:26:40;39.05;;;15.70;;
49029;SDS011;43337;52.070;4.508;2023-09-30T06:29:07;30.77;;;13.40;;
49029;SDS011;43337;52.070;4.508;2023-09-30T06:31:32;31.45;;;13.85;;
49029;SDS011;43337;52.070;4.508;2023-09-30T06:33:59;29.48;;;13.70;;
49029;SDS011;43337;52.070;4.508;2023-09-30T06:36:25;30.85;;;13.93;;
49029;SDS011;43337;52.070;4.508;2023-09-30T06:38:50;33.85;;;15.20;;
49029;SDS011;43337;52.070;4.508;2023-09-30T06:41:17;30.85;;;15.48;;
49029;SDS011;43337;52.070;4.508;2023-09-30T06:43:43;31.70;;;14.02;;
49029;SDS011;43337;52.070;4.508;2023-09-30T06:46:09;35.08;;;14.95;;
49029;SDS011;43337;52.070;4.508;2023-09-30T06:48:35;30.52;;;13.05;;
49029;SDS011;43337;52.070;4.508;2023-09-30T06:51:00;27.98;;;13.25;;
49029;SDS011;43337;52.070;4.508;2023-09-30T06:53:26;30.33;;;14.25;;
49029;SDS011;43337;52.070;4.508;2023-09-30T06:55:52;30.60;;;13.77;;
49029;SDS011;43337;52.070;4.508;2023-09-30T06:58:17;25.10;;;12.60;;
49029;SDS011;43337;52.070;4.508;2023-09-30T07:00:46;32.08;;;15.57;;
49029;SDS011;43337;52.070;4.508;2023-09-30T07:03:16;29.05;;;13.60;;
49029;SDS011;43337;52.070;4.508;2023-09-30T07:05:42;28.98;;;13.65;;
49029;SDS011;43337;52.070;4.508;2023-09-30T07:08:09;42.47;;;21.58;;
49029;SDS011;43337;52.070;4.508;2023-09-30T07:10:34;31.55;;;13.88;;
49029;SDS011;43337;52.070;4.508;2023-09-30T07:13:03;33.85;;;17.60;;
49029;SDS011;43337;52.070;4.508;2023-09-30T07:15:31;34.08;;;14.55;;
49029;SDS011;43337;52.070;4.508;2023-09-30T07:17:57;33.13;;;15.55;;
49029;SDS011;43337;52.070;4.508;2023-09-30T07:20:22;28.40;;;14.43;;
49029;SDS011;43337;52.070;4.508;2023-09-30T07:22:48;29.15;;;13.77;;
49029;SDS011;43337;52.070;4.508;2023-09-30T07:25:13;30.08;;;14.63;;
49029;SDS011;43337;52.070;4.508;2023-09-30T07:27:45;31.20;;;15.32;;
49029;SDS011;43337;52.070;4.508;2023-09-30T07:30:13;29.45;;;14.27;;
49029;SDS011;43337;52.070;4.508;2023-09-30T07:32:42;30.17;;;13.77;;
49029;SDS011;43337;52.070;4.508;2023-09-30T07:35:07;32.78;;;13.60;;
49029;SDS011;43337;52.070;4.508;2023-09-30T07:37:33;32.85;;;16.25;;
49029;SDS011;43337;52.070;4.508;2023-09-30T07:39:59;31.52;;;14.65;;
49029;SDS011;43337;52.070;4.508;2023-09-30T07:42:24;25.52;;;12.77;;
49029;SDS011;43337;52.070;4.508;2023-09-30T07:44:50;31.75;;;13.25;;
49029;SDS011;43337;52.070;4.508;2023-09-30T07:47:15;31.20;;;13.43;;
49029;SDS011;43337;52.070;4.508;2023-09-30T07:49:40;31.50;;;14.43;;
49029;SDS011;43337;52.070;4.508;2023-09-30T07:52:06;29.60;;;14.80;;
49029;SDS011;43337;52.070;4.508;2023-09-30T07:54:31;31.50;;;14.02;;
49029;SDS011;43337;52.070;4.508;2023-09-30T07:56:56;29.65;;;13.43;;
49029;SDS011;43337;52.070;4.508;2023-09-30T07:59:22;22.98;;;11.18;;
49029;SDS011;43337;52.070;4.508;2023-09-30T08:01:48;23.23;;;12.32;;
49029;SDS011;43337;52.070;4.508;2023-09-30T08:04:14;30.30;;;12.98;;
49029;SDS011;43337;52.070;4.508;2023-09-30T08:06:39;26.63;;;12.60;;
49029;SDS011;43337;52.070;4.508;2023-09-30T08:09:07;27.20;;;13.30;;
49029;SDS011;43337;52.070;4.508;2023-09-30T08:11:38;27.80;;;12.18;;
49029;SDS011;43337;52.070;4.508;2023-09-30T08:14:07;22.70;;;10.95;;
49029;SDS011;43337;52.070;4.508;2023-09-30T08:16:36;27.95;;;11.40;;
49029;SDS011;43337;52.070;4.508;2023-09-30T08:19:02;26.30;;;11.43;;
49029;SDS011;43337;52.070;4.508;2023-09-30T08:21:28;31.05;;;10.35;;
49029;SDS011;43337;52.070;4.508;2023-09-30T08:23:55;20.33;;;9.57;;
49029;SDS011;43337;52.070;4.508;2023-09-30T08:26:22;20.02;;;10.25;;
49029;SDS011;43337;52.070;4.508;2023-09-30T08:28:51;21.95;;;8.77;;
49029;SDS011;43337;52.070;4.508;2023-09-30T08:31:16;20.48;;;10.07;;
49029;SDS011;43337;52.070;4.508;2023-09-30T08:33:42;33.33;;;15.60;;
49029;SDS011;43337;52.070;4.508;2023-09-30T08:36:15;18.50;;;8.23;;
49029;SDS011;43337;52.070;4.508;2023-09-30T08:38:43;23.17;;;8.50;;
49029;SDS011;43337;52.070;4.508;2023-09-30T08:41:24;20.05;;;7.70;;
49029;SDS011;43337;52.070;4.508;2023-09-30T08:43:55;17.77;;;7.75;;
49029;SDS011;43337;52.070;4.508;2023-09-30T08:46:24;22.95;;;8.10;;
49029;SDS011;43337;52.070;4.508;2023-09-30T08:48:50;19.40;;;7.63;;
49029;SDS011;43337;52.070;4.508;2023-09-30T08:51:16;17.60;;;7.47;;
49029;SDS011;43337;52.070;4.508;2023-09-30T08:53:41;14.98;;;6.55;;
49029;SDS011;43337;52.070;4.508;2023-09-30T08:56:09;16.48;;;7.18;;
49029;SDS011;43337;52.070;4.508;2023-09-30T08:58:35;17.25;;;5.60;;
49029;SDS011;43337;52.070;4.508;2023-09-30T09:01:02;14.85;;;5.78;;
49029;SDS011;43337;52.070;4.508;2023-09-30T09:03:33;19.48;;;5.78;;
49029;SDS011;43337;52.070;4.508;2023-09-30T09:05:59;15.55;;;4.90;;
49029;SDS011;43337;52.070;4.508;2023-09-30T09:08:27;14.18;;;4.80;;
49029;SDS011;43337;52.070;4.508;2023-09-30T09:10:55;12.73;;;4.50;;
49029;SDS011;43337;52.070;4.508;2023-09-30T09:13:21;12.32;;;3.67;;
49029;SDS011;43337;52.070;4.508;2023-09-30T09:15:47;13.18;;;3.83;;
49029;SDS011;43337;52.070;4.508;2023-09-30T09:18:15;12.20;;;4.22;;
49029;SDS011;43337;52.070;4.508;2023-09-30T09:23:42;9.13;;;4.18;;
49029;SDS011;43337;52.070;4.508;2023-09-30T09:26:12;13.65;;;3.97;;
49029;SDS011;43337;52.070;4.508;2023-09-30T09:28:56;16.73;;;5.18;;
49029;SDS011;43337;52.070;4.508;2023-09-30T09:31:22;12.85;;;3.80;;
49029;SDS011;43337;52.070;4.508;2023-09-30T09:33:50;10.75;;;3.17;;
49029;SDS011;43337;52.070;4.508;2023-09-30T09:36:17;11.18;;;3.50;;
49029;SDS011;43337;52.070;4.508;2023-09-30T09:38:44;12.93;;;5.47;;
49029;SDS011;43337;52.070;4.508;2023-09-30T09:41:11;11.90;;;3.38;;
49029;SDS011;43337;52.070;4.508;2023-09-30T09:43:37;8.75;;;3.00;;
49029;SDS011;43337;52.070;4.508;2023-09-30T09:46:04;11.50;;;3.45;;
49029;SDS011;43337;52.070;4.508;2023-09-30T09:48:33;15.27;;;4.25;;
49029;SDS011;43337;52.070;4.508;2023-09-30T09:51:00;9.65;;;2.63;;
49029;SDS011;43337;52.070;4.508;2023-09-30T09:53:28;10.93;;;2.63;;
49029;SDS011;43337;52.070;4.508;2023-09-30T09:55:56;16.02;;;3.38;;
49029;SDS011;43337;52.070;4.508;2023-09-30T09:58:24;9.40;;;2.30;;
49029;SDS011;43337;52.070;4.508;2023-09-30T10:00:54;8.18;;;2.60;;
49029;SDS011;43337;52.070;4.508;2023-09-30T10:03:21;13.13;;;3.25;;
49029;SDS011;43337;52.070;4.508;2023-09-30T10:05:47;8.25;;;2.10;;
49029;SDS011;43337;52.070;4.508;2023-09-30T10:08:14;9.98;;;2.30;;
49029;SDS011;43337;52.070;4.508;2023-09-30T10:10:43;10.75;;;2.80;;
49029;SDS011;43337;52.070;4.508;2023-09-30T10:13:49;6.95;;;1.92;;
49029;SDS011;43337;52.070;4.508;2023-09-30T10:21:32;7.53;;;1.77;;
49029;SDS011;43337;52.070;4.508;2023-09-30T10:32:23;10.70;;;1.30;;
49029;SDS011;43337;52.070;4.508;2023-09-30T10:34:48;6.78;;;1.67;;
49029;SDS011;43337;52.070;4.508;2023-09-30T10:37:20;10.73;;;2.17;;
49029;SDS011;43337;52.070;4.508;2023-09-30T10:39:56;5.38;;;1.73;;
49029;SDS011;43337;52.070;4.508;2023-09-30T10:42:44;11.90;;;1.55;;
49029;SDS011;43337;52.070;4.508;2023-09-30T10:48:31;7.93;;;2.35;;
49029;SDS011;43337;52.070;4.508;2023-09-30T10:50:54;14.00;;;4.15;;
49029;SDS011;43337;52.070;4.508;2023-09-30T10:53:21;7.28;;;1.92;;
49029;SDS011;43337;52.070;4.508;2023-09-30T10:55:55;9.13;;;2.45;;
49029;SDS011;43337;52.070;4.508;2023-09-30T10:58:38;10.55;;;2.78;;
49029;SDS011;43337;52.070;4.508;2023-09-30T11:01:14;12.18;;;3.28;;
49029;SDS011;43337;52.070;4.508;2023-09-30T11:03:42;9.38;;;2.17;;
49029;SDS011;43337;52.070;4.508;2023-09-30T11:06:10;7.40;;;1.63;;
49029;SDS011;43337;52.070;4.508;2023-09-30T11:08:38;7.15;;;1.92;;
49029;SDS011;43337;52.070;4.508;2023-09-30T11:11:09;10.60;;;2.10;;
49029;SDS011;43337;52.070;4.508;2023-09-30T11:13:36;13.82;;;2.95;;
49029;SDS011;43337;52.070;4.508;2023-09-30T11:16:02;7.20;;;1.50;;
49029;SDS011;43337;52.070;4.508;2023-09-30T11:18:30;14.13;;;3.10;;
49029;SDS011;43337;52.070;4.508;2023-09-30T11:21:03;11.18;;;3.05;;
49029;SDS011;43337;52.070;4.508;2023-09-30T11:23:30;10.98;;;2.58;;
49029;SDS011;43337;52.070;4.508;2023-09-30T11:25:55;8.95;;;2.72;;
49029;SDS011;43337;52.070;4.508;2023-09-30T11:28:21;10.70;;;2.20;;
49029;SDS011;43337;52.070;4.508;2023-09-30T11:30:58;8.20;;;1.85;;
49029;SDS011;43337;52.070;4.508;2023-09-30T11:33:24;8.52;;;2.10;;
49029;SDS011;43337;52.070;4.508;2023-09-30T11:36:00;14.85;;;3.83;;
49029;SDS011;43337;52.070;4.508;2023-09-30T11:38:30;7.03;;;1.98;;
49029;SDS011;43337;52.070;4.508;2023-09-30T11:41:00;15.82;;;2.95;;
49029;SDS011;43337;52.070;4.508;2023-09-30T11:43:31;8.32;;;2.15;;
49029;SDS011;43337;52.070;4.508;2023-09-30T11:46:07;8.93;;;1.80;;
49029;SDS011;43337;52.070;4.508;2023-09-30T11:48:37;9.52;;;2.03;;
49029;SDS011;43337;52.070;4.508;2023-09-30T11:51:03;10.60;;;1.83;;
49029;SDS011;43337;52.070;4.508;2023-09-30T11:53:29;8.90;;;2.30;;
49029;SDS011;43337;52.070;4.508;2023-09-30T11:55:59;6.18;;;1.80;;
49029;SDS011;43337;52.070;4.508;2023-09-30T11:58:28;8.43;;;2.20;;
49029;SDS011;43337;52.070;4.508;2023-09-30T12:00:58;8.18;;;1.80;;
49029;SDS011;43337;52.070;4.508;2023-09-30T12:03:27;11.88;;;1.90;;
49029;SDS011;43337;52.070;4.508;2023-09-30T12:05:55;8.50;;;2.53;;
49029;SDS011;43337;52.070;4.508;2023-09-30T12:08:22;10.07;;;2.03;;
49029;SDS011;43337;52.070;4.508;2023-09-30T12:10:48;7.97;;;2.40;;
49029;SDS011;43337;52.070;4.508;2023-09-30T12:13:14;13.75;;;2.35;;
49029;SDS011;43337;52.070;4.508;2023-09-30T12:15:40;8.48;;;1.83;;
49029;SDS011;43337;52.070;4.508;2023-09-30T12:18:06;8.73;;;1.95;;
49029;SDS011;43337;52.070;4.508;2023-09-30T12:20:31;9.82;;;2.38;;
49029;SDS011;43337;52.070;4.508;2023-09-30T12:22:57;13.32;;;2.50;;
49029;SDS011;43337;52.070;4.508;2023-09-30T12:25:23;7.43;;;2.30;;
49029;SDS011;43337;52.070;4.508;2023-09-30T12:27:50;8.35;;;1.90;;
49029;SDS011;43337;52.070;4.508;2023-09-30T12:30:16;8.70;;;2.05;;
49029;SDS011;43337;52.070;4.508;2023-09-30T12:32:45;7.57;;;2.50;;
49029;SDS011;43337;52.070;4.508;2023-09-30T12:35:11;11.07;;;2.10;;
49029;SDS011;43337;52.070;4.508;2023-09-30T12:37:37;7.40;;;1.90;;
49029;SDS011;43337;52.070;4.508;2023-09-30T12:40:05;9.07;;;2.72;;
49029;SDS011;43337;52.070;4.508;2023-09-30T12:42:32;10.07;;;2.08;;
49029;SDS011;43337;52.070;4.508;2023-09-30T12:45:00;9.52;;;2.53;;
49029;SDS011;43337;52.070;4.508;2023-09-30T12:47:26;12.45;;;2.25;;
49029;SDS011;43337;52.070;4.508;2023-09-30T12:49:51;11.60;;;2.63;;
49029;SDS011;43337;52.070;4.508;2023-09-30T12:52:19;10.35;;;2.70;;
49029;SDS011;43337;52.070;4.508;2023-09-30T12:54:45;9.73;;;2.10;;
49029;SDS011;43337;52.070;4.508;2023-09-30T12:57:11;10.45;;;2.20;;
49029;SDS011;43337;52.070;4.508;2023-09-30T12:59:38;10.15;;;2.83;;
49029;SDS011;43337;52.070;4.508;2023-09-30T13:02:04;9.70;;;2.67;;
49029;SDS011;43337;52.070;4.508;2023-09-30T13:04:30;10.77;;;2.58;;
49029;SDS011;43337;52.070;4.508;2023-09-30T13:06:56;12.35;;;3.38;;
49029;SDS011;43337;52.070;4.508;2023-09-30T13:09:22;11.55;;;3.80;;
49029;SDS011;43337;52.070;4.508;2023-09-30T13:11:47;11.27;;;3.03;;
49029;SDS011;43337;52.070;4.508;2023-09-30T13:14:14;10.32;;;2.58;;
49029;SDS011;43337;52.070;4.508;2023-09-30T13:16:39;12.85;;;2.95;;
49029;SDS011;43337;52.070;4.508;2023-09-30T13:19:05;10.38;;;3.38;;
49029;SDS011;43337;52.070;4.508;2023-09-30T13:21:30;9.93;;;2.53;;
49029;SDS011;43337;52.070;4.508;2023-09-30T13:23:56;8.93;;;2.38;;
49029;SDS011;43337;52.070;4.508;2023-09-30T13:26:22;10.02;;;1.95;;
49029;SDS011;43337;52.070;4.508;2023-09-30T13:28:47;11.13;;;2.30;;
49029;SDS011;43337;52.070;4.508;2023-09-30T13:31:13;7.63;;;1.98;;
49029;SDS011;43337;52.070;4.508;2023-09-30T13:33:38;8.23;;;2.75;;
49029;SDS011;43337;52.070;4.508;2023-09-30T13:36:04;7.88;;;2.47;;
49029;SDS011;43337;52.070;4.508;2023-09-30T13:38:30;10.95;;;2.08;;
49029;SDS011;43337;52.070;4.508;2023-09-30T13:40:55;7.70;;;2.00;;
49029;SDS011;43337;52.070;4.508;2023-09-30T13:43:21;6.93;;;1.70;;
49029;SDS011;43337;52.070;4.508;2023-09-30T13:45:47;9.15;;;2.10;;
49029;SDS011;43337;52.070;4.508;2023-09-30T13:48:13;9.38;;;1.90;;
49029;SDS011;43337;52.070;4.508;2023-09-30T13:50:39;9.30;;;2.53;;
49029;SDS011;43337;52.070;4.508;2023-09-30T13:53:04;6.80;;;2.42;;
49029;SDS011;43337;52.070;4.508;2023-09-30T13:55:30;8.20;;;2.40;;
49029;SDS011;43337;52.070;4.508;2023-09-30T13:57:55;8.45;;;2.35;;
49029;SDS011;43337;52.070;4.508;2023-09-30T14:00:21;8.60;;;1.98;;
49029;SDS011;43337;52.070;4.508;2023-09-30T14:02:46;12.27;;;2.22;;
49029;SDS011;43337;52.070;4.508;2023-09-30T14:05:11;7.82;;;1.65;;
49029;SDS011;43337;52.070;4.508;2023-09-30T14:07:38;9.13;;;1.85;;
49029;SDS011;43337;52.070;4.508;2023-09-30T14:10:05;7.88;;;2.25;;
49029;SDS011;43337;52.070;4.508;2023-09-30T14:12:31;5.60;;;1.48;;
49029;SDS011;43337;52.070;4.508;2023-09-30T14:14:56;15.32;;;1.92;;
49029;SDS011;43337;52.070;4.508;2023-09-30T14:17:22;9.23;;;1.55;;
49029;SDS011;43337;52.070;4.508;2023-09-30T14:19:47;9.00;;;1.58;;
49029;SDS011;43337;52.070;4.508;2023-09-30T14:22:13;8.07;;;1.42;;
49029;SDS011;43337;52.070;4.508;2023-09-30T14:24:38;8.52;;;1.83;;
49029;SDS011;43337;52.070;4.508;2023-09-30T14:27:04;12.65;;;1.92;;
49029;SDS011;43337;52.070;4.508;2023-09-30T14:29:30;12.38;;;1.88;;
49029;SDS011;43337;52.070;4.508;2023-09-30T14:31:56;7.47;;;1.40;;
49029;SDS011;43337;52.070;4.508;2023-09-30T14:34:22;6.50;;;1.90;;
49029;SDS011;43337;52.070;4.508;2023-09-30T14:36:48;8.02;;;1.30;;
49029;SDS011;43337;52.070;4.508;2023-09-30T14:39:14;10.50;;;2.03;;
49029;SDS011;43337;52.070;4.508;2023-09-30T14:41:44;8.68;;;2.00;;
49029;SDS011;43337;52.070;4.508;2023-09-30T14:44:10;9.70;;;1.42;;
49029;SDS011;43337;52.070;4.508;2023-09-30T14:46:37;9.93;;;1.75;;
49029;SDS011;43337;52.070;4.508;2023-09-30T14:49:03;11.48;;;1.73;;
49029;SDS011;43337;52.070;4.508;2023-09-30T14:51:31;9.77;;;1.52;;